Time;durP1;ratioP1;P1;durP2;ratioP2;P2;SDS_P1;SDS_P2;PMS_P1;PMS_P2;Temp;Humidity;BMP_temperature;BMP_pressure;BME280_temperature;BME280_humidity;BME280_pressure;Samples;Min_cycle;Max_cycle;Signal;HPM_P1;HPM_P2
2021/07/20 00:01:00;;;;;;;15.77;7.97;;;;;;;29.25;46.50;101116.62;4382772;32;20160;-88
2021/07/20 00:03:26;;;;;;;17.33;9.30;;;;;;;29.24;46.61;101117.97;4385403;32;20054;-89
2021/07/20 00:05:52;;;;;;;16.67;9.25;;;;;;;29.27;46.53;101113.16;4387392;32;20114;-90
2021/07/20 00:08:18;;;;;;;13.18;7.87;;;;;;;29.13;46.92;101118.19;4383970;32;20027;-89
2021/07/20 00:13:24;;;;;;;15.57;8.88;;;;;;;29.73;45.90;101112.38;3982135;32;15145752;-75
2021/07/20 00:15:54;;;;;;;19.52;8.77;;;;;;;29.73;45.90;101112.38;4442866;32;20359;-74
2021/07/20 00:18:23;;;;;;;16.30;8.88;;;;;;;29.36;46.50;101118.50;4440822;32;20041;-75
2021/07/20 00:20:49;;;;;;;15.35;9.27;;;;;;;29.24;46.68;101108.47;4439330;32;20129;-75
2021/07/20 00:23:14;;;;;;;12.85;8.13;;;;;;;28.98;47.17;101115.06;4442586;32;20018;-74
2021/07/20 00:25:40;;;;;;;19.42;8.73;;;;;;;28.97;46.85;101104.81;4442574;32;20460;-73
2021/07/20 00:28:07;;;;;;;17.27;8.13;;;;;;;29.22;46.16;101105.34;4442897;32;20426;-74
2021/07/20 00:30:33;;;;;;;16.60;8.57;;;;;;;29.17;46.40;101100.47;4439747;32;20760;-73
2021/07/20 00:32:59;;;;;;;17.30;8.07;;;;;;;29.16;46.09;101098.88;4441375;32;20086;-75
2021/07/20 00:35:24;;;;;;;15.52;8.18;;;;;;;29.13;45.91;101100.81;4443389;32;20081;-75
2021/07/20 00:37:50;;;;;;;15.82;8.57;;;;;;;29.12;45.76;101104.25;4431155;32;20490;-74
2021/07/20 00:40:18;;;;;;;17.33;8.35;;;;;;;28.80;46.55;101107.25;4439881;32;20069;-75
2021/07/20 00:42:45;;;;;;;26.40;9.02;;;;;;;29.01;46.15;101105.25;4441823;32;20049;-74
2021/07/20 00:45:14;;;;;;;15.20;8.00;;;;;;;28.74;46.95;101098.69;4443357;32;20478;-74
2021/07/20 00:47:40;;;;;;;17.85;8.38;;;;;;;28.84;46.85;101096.91;4442093;32;20088;-75
2021/07/20 00:50:08;;;;;;;16.23;8.10;;;;;;;28.65;47.29;101096.22;4441401;32;20517;-75
2021/07/20 00:52:33;;;;;;;17.08;8.02;;;;;;;28.94;46.62;101092.22;4441140;32;20041;-73
2021/07/20 00:55:00;;;;;;;18.58;8.35;;;;;;;28.91;46.42;101095.44;4440968;32;20071;-75
2021/07/20 00:57:26;;;;;;;17.20;7.47;;;;;;;28.75;46.69;101099.47;4442351;32;20047;-74
2021/07/20 00:59:53;;;;;;;16.58;7.12;;;;;;;28.77;46.62;101097.56;4442000;32;20033;-74
2021/07/20 01:02:19;;;;;;;16.67;8.43;;;;;;;28.88;46.25;101094.47;4427886;32;20068;-74
2021/07/20 01:04:45;;;;;;;15.07;8.00;;;;;;;28.75;46.22;101100.22;4423908;32;20085;-75
2021/07/20 01:07:11;;;;;;;14.32;7.53;;;;;;;28.64;46.38;101100.47;4424932;32;20076;-73
2021/07/20 01:09:37;;;;;;;18.55;8.35;;;;;;;28.57;46.68;101101.16;4423114;32;20042;-74
2021/07/20 01:12:04;;;;;;;15.35;7.53;;;;;;;28.43;47.08;101104.53;4423727;32;20042;-74
2021/07/20 01:14:31;;;;;;;18.15;7.90;;;;;;;28.38;47.20;101099.66;4422886;32;20026;-76
2021/07/20 01:16:57;;;;;;;18.55;8.05;;;;;;;28.34;47.33;101093.38;4425163;32;20026;-74
2021/07/20 01:19:29;;;;;;;16.37;7.97;;;;;;;28.26;47.46;101092.50;4424649;32;20483;-73
2021/07/20 01:21:57;;;;;;;13.95;7.07;;;;;;;28.31;47.40;101094.50;4423663;32;20034;-77
2021/07/20 01:24:24;;;;;;;15.38;7.97;;;;;;;28.34;47.17;101088.37;4416362;32;20340;-74
2021/07/20 01:26:49;;;;;;;15.77;8.63;;;;;;;28.18;47.36;101092.38;4412944;32;20045;-76
2021/07/20 01:29:16;;;;;;;16.23;7.85;;;;;;;28.20;47.30;101095.50;4413800;32;20027;-73
2021/07/20 01:31:44;;;;;;;13.48;7.32;;;;;;;28.24;47.21;101090.16;4412723;32;20406;-74
2021/07/20 01:34:12;;;;;;;20.52;7.68;;;;;;;28.31;47.42;101091.59;4413819;32;20126;-73
2021/07/20 01:36:40;;;;;;;18.37;7.72;;;;;;;28.32;47.45;101091.03;4413654;32;20073;-73
2021/07/20 01:39:09;;;;;;;18.25;7.95;;;;;;;28.15;47.78;101093.47;4414826;32;20516;-75
2021/07/20 01:41:36;;;;;;;15.45;8.52;;;;;;;28.26;47.69;101093.25;4410335;32;20406;-75
2021/07/20 01:44:06;;;;;;;14.18;7.12;;;;;;;28.18;47.68;101092.38;4414031;32;20062;-74
2021/07/20 01:46:33;;;;;;;13.82;7.43;;;;;;;28.17;47.87;101093.72;4415403;32;20070;-75
2021/07/20 01:49:03;;;;;;;16.27;7.45;;;;;;;28.24;47.72;101090.16;4413282;32;20438;-74
2021/07/20 01:51:30;;;;;;;12.18;6.93;;;;;;;28.26;47.59;101084.56;4410180;32;20030;-75
2021/07/20 01:53:59;;;;;;;14.40;7.18;;;;;;;28.17;47.61;101085.03;4414498;32;20060;-73
2021/07/20 01:56:25;;;;;;;15.48;7.35;;;;;;;27.91;48.02;101084.94;4413169;32;20046;-73
2021/07/20 01:58:52;;;;;;;14.93;7.68;;;;;;;28.00;47.89;101087.41;4411749;32;20114;-74
2021/07/20 02:01:21;;;;;;;16.05;7.50;;;;;;;28.11;47.66;101089.34;4410908;32;20045;-74
2021/07/20 02:09:22;;;;;;;14.63;7.75;;;;;;;28.49;47.11;101085.75;4435160;32;20418;-74
2021/07/20 02:11:50;;;;;;;13.25;7.22;;;;;;;28.23;47.43;101082.81;4430502;32;20404;-75
2021/07/20 02:14:19;;;;;;;15.93;8.10;;;;;;;28.07;47.79;101078.06;4434489;32;20468;-76
2021/07/20 02:16:47;;;;;;;13.45;7.32;;;;;;;28.03;47.85;101077.63;4436187;32;20060;-75
2021/07/20 02:19:19;;;;;;;17.33;7.57;;;;;;;28.04;47.81;101078.41;4436900;32;20098;-76
2021/07/20 02:21:50;;;;;;;14.57;7.62;;;;;;;28.05;47.79;101082.88;4433412;32;20104;-74
2021/07/20 02:24:18;;;;;;;17.17;7.75;;;;;;;28.03;47.85;101077.63;4433055;32;20009;-77
2021/07/20 02:26:46;;;;;;;13.68;7.05;;;;;;;27.84;48.26;101076.88;4434182;32;20414;-76
2021/07/20 02:29:14;;;;;;;14.85;6.85;;;;;;;27.90;48.05;101080.50;4431447;32;20059;-75
2021/07/20 02:31:41;;;;;;;16.55;8.18;;;;;;;27.96;47.88;101075.41;4431595;32;20093;-74
2021/07/20 02:34:08;;;;;;;13.15;7.75;;;;;;;27.77;48.04;101074.63;4432697;32;20148;-74
2021/07/20 02:36:36;;;;;;;16.23;7.32;;;;;;;27.76;47.97;101067.28;4437024;32;20077;-74
2021/07/20 02:39:05;;;;;;;12.90;7.15;;;;;;;28.01;47.32;101070.84;4437801;32;20477;-75
2021/07/20 02:41:31;;;;;;;14.02;8.05;;;;;;;27.79;47.82;101074.84;4432008;32;20100;-74
2021/07/20 02:43:58;;;;;;;16.62;7.80;;;;;;;27.74;47.86;101064.16;4437075;32;20433;-75
2021/07/20 02:46:25;;;;;;;15.05;7.55;;;;;;;27.78;47.92;101070.41;4434435;32;20166;-74
2021/07/20 02:48:52;;;;;;;15.30;7.57;;;;;;;27.52;48.54;101069.53;4436518;32;20098;-73
2021/07/20 02:51:20;;;;;;;12.73;7.40;;;;;;;27.54;48.38;101066.84;4432077;32;20787;-74
2021/07/20 02:53:48;;;;;;;11.93;7.22;;;;;;;27.56;48.30;101070.78;4436012;32;20308;-75
2021/07/20 02:56:15;;;;;;;14.57;7.20;;;;;;;27.65;47.96;101073.25;4432194;32;20418;-74
2021/07/20 02:58:45;;;;;;;16.15;7.50;;;;;;;27.41;48.51;101072.56;4432591;32;20045;-75
2021/07/20 03:01:11;;;;;;;14.87;7.20;;;;;;;27.53;48.28;101071.06;4429762;32;20089;-74
2021/07/20 03:03:37;;;;;;;12.88;7.28;;;;;;;27.50;48.25;101067.19;4421523;32;20057;-74
2021/07/20 03:06:05;;;;;;;16.85;7.10;;;;;;;27.38;48.51;101071.56;4417117;32;20038;-73
2021/07/20 03:08:34;;;;;;;11.95;7.22;;;;;;;27.51;48.13;101074.50;4414913;32;20038;-74
2021/07/20 03:11:03;;;;;;;19.45;7.53;;;;;;;27.37;48.52;101072.91;4417880;32;20026;-74
2021/07/20 03:13:31;;;;;;;14.32;8.40;;;;;;;27.45;48.34;101068.03;4419244;32;20072;-74
2021/07/20 03:15:58;;;;;;;23.87;8.35;;;;;;;27.33;48.64;101069.53;4415843;32;20034;-74
2021/07/20 03:18:28;;;;;;;15.20;7.87;;;;;;;27.34;48.60;101064.53;4408047;32;20361;-74
2021/07/20 03:20:55;;;;;;;17.37;8.57;;;;;;;27.50;48.21;101070.06;4410528;32;20509;-74
2021/07/20 03:23:23;;;;;;;13.52;7.75;;;;;;;27.40;48.28;101062.34;4404965;32;20120;-74
2021/07/20 03:25:50;;;;;;;13.65;6.90;;;;;;;27.55;48.07;101071.31;4409205;32;20152;-74
2021/07/20 03:28:17;;;;;;;15.30;6.80;;;;;;;27.30;48.63;101067.72;4408888;32;20025;-74
2021/07/20 03:30:44;;;;;;;20.17;7.90;;;;;;;27.39;48.44;101064.44;4405417;32;20410;-74
2021/07/20 03:33:11;;;;;;;14.52;8.23;;;;;;;27.37;48.31;101064.22;4404556;32;20081;-73
2021/07/20 03:35:38;;;;;;;17.37;7.22;;;;;;;27.47;47.79;101064.59;4407026;32;20064;-74
2021/07/20 03:38:03;;;;;;;11.43;6.87;;;;;;;27.63;47.68;101067.22;4410771;32;20363;-74
2021/07/20 03:40:30;;;;;;;13.25;6.15;;;;;;;27.63;47.43;101063.56;4404555;32;20030;-74
2021/07/20 03:42:57;;;;;;;21.27;7.90;;;;;;;27.69;47.29;101061.34;4408009;32;20412;-74
2021/07/20 03:45:23;;;;;;;19.02;7.53;;;;;;;27.79;47.25;101074.09;4407649;32;20341;-74
2021/07/20 03:47:49;;;;;;;15.40;6.97;;;;;;;27.74;47.31;101069.97;4411087;32;20077;-74
2021/07/20 03:50:16;;;;;;;15.52;7.28;;;;;;;27.85;47.09;101069.75;4408911;32;20067;-74
2021/07/20 03:52:42;;;;;;;18.05;7.62;;;;;;;28.04;46.77;101069.75;4408239;32;20113;-74
2021/07/20 03:55:08;;;;;;;17.33;7.72;;;;;;;27.98;46.55;101066.94;4411786;32;20052;-74
2021/07/20 03:57:35;;;;;;;13.68;6.65;;;;;;;27.99;46.63;101074.28;4409479;32;20048;-74
2021/07/20 04:00:06;;;;;;;13.32;7.37;;;;;;;28.01;46.09;101068.72;4407367;32;20100;-74
2021/07/20 04:02:44;;;;;;;12.93;6.75;;;;;;;27.99;46.40;101068.50;4405643;32;20573;-74
2021/07/20 04:05:12;;;;;;;15.30;6.68;;;;;;;28.18;46.03;101066.31;4407337;32;20054;-74
2021/07/20 04:07:39;;;;;;;15.55;7.25;;;;;;;28.13;46.26;101067.19;4407497;32;20066;-74
2021/07/20 04:10:06;;;;;;;18.80;7.55;;;;;;;28.17;46.22;101067.66;4407870;32;20068;-74
2021/07/20 04:12:34;;;;;;;18.25;7.03;;;;;;;27.92;46.63;101068.38;4405608;32;20065;-74
2021/07/20 04:15:01;;;;;;;14.00;6.60;;;;;;;28.09;46.57;101071.75;4407170;32;20044;-74
2021/07/20 04:17:28;;;;;;;16.02;6.57;;;;;;;27.91;46.77;101073.38;4408063;32;20037;-73
2021/07/20 04:19:55;;;;;;;16.02;7.68;;;;;;;28.09;46.65;101074.63;4404285;32;20038;-74
2021/07/20 04:22:21;;;;;;;10.98;7.12;;;;;;;28.06;46.66;101082.31;4405844;32;20532;-73
2021/07/20 04:24:47;;;;;;;14.05;7.82;;;;;;;28.00;46.85;101072.16;4403421;32;20505;-74
2021/07/20 04:27:15;;;;;;;19.48;7.50;;;;;;;28.07;46.72;101078.06;4410399;32;20050;-75
2021/07/20 04:29:42;;;;;;;10.63;7.07;;;;;;;27.99;46.98;101080.06;4407037;32;20133;-75
2021/07/20 04:32:09;;;;;;;13.80;8.02;;;;;;;28.10;46.85;101085.66;4408372;32;20462;-75
2021/07/20 04:34:37;;;;;;;21.20;7.80;;;;;;;28.11;46.92;101081.44;4405393;32;20078;-74
2021/07/20 04:37:06;;;;;;;15.52;7.75;;;;;;;28.02;47.12;101078.97;4401983;32;20336;-75
2021/07/20 04:39:36;;;;;;;19.52;7.82;;;;;;;28.09;47.07;101084.09;4409527;32;20105;-75
2021/07/20 04:42:04;;;;;;;16.33;8.68;;;;;;;28.13;46.93;101087.44;4405293;32;20058;-74
2021/07/20 04:44:31;;;;;;;18.40;9.15;;;;;;;28.09;47.14;101087.00;4407557;32;20065;-75
2021/07/20 04:46:57;;;;;;;23.50;9.77;;;;;;;28.01;47.33;101088.22;4405621;32;20081;-74
2021/07/20 04:49:23;;;;;;;22.23;10.30;;;;;;;28.03;47.38;101092.09;4407487;32;20037;-75
2021/07/20 04:51:49;;;;;;;26.10;10.73;;;;;;;28.00;47.42;101084.53;4405732;32;20066;-75
2021/07/20 04:54:16;;;;;;;31.08;10.82;;;;;;;28.04;47.49;101087.87;4403621;32;20034;-74
2021/07/20 04:56:43;;;;;;;30.10;11.23;;;;;;;28.24;47.32;101095.16;4407497;32;20033;-74
2021/07/20 04:59:11;;;;;;;25.88;10.85;;;;;;;28.22;47.28;101094.94;4410449;32;20402;-75
2021/07/20 05:01:40;;;;;;;30.58;12.13;;;;;;;28.38;47.06;101096.75;4404039;32;20083;-75
2021/07/20 05:04:07;;;;;;;29.58;12.48;;;;;;;28.45;47.03;101096.91;4405228;32;20474;-75
2021/07/20 05:06:35;;;;;;;32.65;13.15;;;;;;;28.52;46.84;101095.44;4405918;32;20116;-75
2021/07/20 05:09:02;;;;;;;30.12;13.55;;;;;;;28.62;46.63;101099.44;4409306;32;20077;-74
2021/07/20 05:11:28;;;;;;;30.98;14.77;;;;;;;28.74;46.48;101086.31;4405368;32;20065;-75
2021/07/20 05:13:55;;;;;;;32.50;14.50;;;;;;;28.80;46.16;101090.66;4408075;32;20089;-75
2021/07/20 05:16:21;;;;;;;35.85;14.77;;;;;;;28.93;45.98;101095.69;4407334;32;20504;-75
2021/07/20 05:18:47;;;;;;;34.47;17.00;;;;;;;28.84;45.82;101094.00;4406315;32;20140;-75
2021/07/20 05:21:16;;;;;;;30.20;15.55;;;;;;;28.91;45.88;101099.13;4405533;32;20092;-75
2021/07/20 05:23:44;;;;;;;32.78;15.90;;;;;;;29.15;45.47;101103.94;4407010;32;20497;-74
2021/07/20 05:26:11;;;;;;;32.65;15.45;;;;;;;29.15;45.48;101106.03;4403018;32;20100;-74
2021/07/20 05:28:37;;;;;;;30.02;14.50;;;;;;;29.19;45.25;101110.16;4410793;32;20038;-74
2021/07/20 05:31:05;;;;;;;36.70;15.88;;;;;;;29.23;45.13;101101.87;4406180;32;20096;-74
2021/07/20 05:33:32;;;;;;;30.98;15.38;;;;;;;29.36;44.88;101093.16;4405550;32;20505;-75
2021/07/20 05:35:59;;;;;;;29.27;15.18;;;;;;;29.25;45.14;101104.22;4406094;32;20018;-75
2021/07/20 05:38:26;;;;;;;32.90;16.20;;;;;;;29.40;44.86;101101.53;4408653;32;20387;-74
2021/07/20 05:40:56;;;;;;;28.52;14.65;;;;;;;29.43;44.79;101106.19;4403314;32;20511;-74
2021/07/20 05:43:24;;;;;;;31.80;14.13;;;;;;;29.53;44.56;101104.37;4407862;32;20188;-75
2021/07/20 05:45:53;;;;;;;28.52;13.88;;;;;;;29.38;44.83;101099.19;4404698;32;20126;-75
2021/07/20 05:48:23;;;;;;;28.92;13.45;;;;;;;29.54;44.40;101100.16;4404507;32;20427;-75
2021/07/20 05:50:53;;;;;;;25.65;12.95;;;;;;;29.74;44.17;101100.22;4404029;32;20420;-75
2021/07/20 05:53:21;;;;;;;21.27;12.85;;;;;;;29.89;43.78;101097.47;4406073;32;20543;-75
2021/07/20 05:55:50;;;;;;;21.87;12.20;;;;;;;29.89;43.86;101099.56;4405722;32;20021;-74
2021/07/20 05:58:19;;;;;;;19.27;11.38;;;;;;;30.00;43.52;101096.41;4408468;32;20086;-75
2021/07/20 06:00:45;;;;;;;24.10;12.10;;;;;;;30.05;43.43;101099.16;4404597;32;20067;-74
2021/07/20 06:03:17;;;;;;;24.05;12.75;;;;;;;29.96;43.51;101101.78;4405289;32;20145;-75
2021/07/20 06:05:44;;;;;;;21.77;12.55;;;;;;;30.15;43.21;101105.22;4404763;32;20057;-75
2021/07/20 06:08:15;;;;;;;24.85;12.98;;;;;;;30.18;43.18;101095.38;4405292;32;20064;-75
2021/07/20 06:10:41;;;;;;;25.27;12.55;;;;;;;30.25;43.00;101101.28;4405320;32;20082;-74
2021/07/20 06:13:10;;;;;;;19.02;11.50;;;;;;;29.99;43.34;101103.53;4404685;32;20030;-75
2021/07/20 06:15:39;;;;;;;25.37;12.35;;;;;;;30.38;42.65;101101.22;4405980;32;20419;-75
2021/07/20 06:18:05;;;;;;;25.58;13.98;;;;;;;30.31;42.72;101101.94;4405790;32;20423;-75
2021/07/20 06:20:31;;;;;;;27.10;13.30;;;;;;;30.18;42.88;101104.09;4404460;32;20119;-74
2021/07/20 06:22:59;;;;;;;19.85;12.30;;;;;;;30.12;43.07;101109.28;4405028;32;20027;-75
2021/07/20 06:25:25;;;;;;;27.77;12.82;;;;;;;30.24;43.02;101101.84;4407958;32;20077;-75
2021/07/20 06:27:52;;;;;;;26.83;12.88;;;;;;;30.29;42.75;101101.72;4408928;32;20623;-75
2021/07/20 06:30:20;;;;;;;25.33;12.95;;;;;;;30.34;42.53;101100.78;4402655;32;20407;-76
2021/07/20 06:32:46;;;;;;;26.45;13.38;;;;;;;30.38;42.53;101114.97;4406913;32;20803;-74
2021/07/20 06:35:15;;;;;;;32.17;15.70;;;;;;;30.35;42.49;101104.47;4408108;32;20461;-75
2021/07/20 06:37:45;;;;;;;35.10;17.15;;;;;;;30.45;42.42;101111.34;4405587;32;20096;-74
2021/07/20 06:40:16;;;;;;;36.70;17.12;;;;;;;30.72;42.03;101103.97;4403534;32;20084;-75
2021/07/20 06:42:42;;;;;;;29.75;15.50;;;;;;;30.82;41.73;101113.75;4403415;32;20092;-74
2021/07/20 06:45:09;;;;;;;35.15;16.65;;;;;;;30.68;41.79;101110.16;4403635;32;20097;-74
2021/07/20 06:47:39;;;;;;;30.17;15.32;;;;;;;30.83;41.75;101110.28;4405481;32;20034;-75
2021/07/20 06:50:08;;;;;;;34.97;16.17;;;;;;;30.86;41.50;101117.06;4405205;32;20521;-75
2021/07/20 06:52:34;;;;;;;29.05;15.50;;;;;;;31.01;41.37;101113.50;4406266;32;20411;-76
2021/07/20 06:55:01;;;;;;;28.90;15.18;;;;;;;30.96;41.42;101105.69;4409362;32;20060;-75
2021/07/20 06:57:28;;;;;;;34.55;15.80;;;;;;;31.03;41.35;101111.56;4407388;32;20096;-76
2021/07/20 06:59:57;;;;;;;28.70;15.75;;;;;;;31.16;40.98;101104.84;4406539;32;20069;-76
2021/07/20 07:02:25;;;;;;;27.45;14.87;;;;;;;31.35;40.56;101111.16;4406428;32;20109;-75
2021/07/20 07:05:01;;;;;;;28.42;15.80;;;;;;;31.33;40.46;101111.75;4408870;32;20078;-77
2021/07/20 07:07:29;;;;;;;28.00;15.32;;;;;;;31.66;39.90;101121.53;4408310;32;20095;-74
2021/07/20 07:09:57;;;;;;;33.33;13.93;;;;;;;31.45;40.09;101112.94;4407889;32;20034;-75
2021/07/20 07:12:23;;;;;;;27.85;13.48;;;;;;;31.44;40.29;101116.44;4406662;32;20147;-74
2021/07/20 07:14:51;;;;;;;29.42;15.70;;;;;;;31.56;40.05;101105.97;4409042;32;20359;-76
2021/07/20 07:17:17;;;;;;;24.75;14.02;;;;;;;31.41;40.35;101108.84;4406571;32;20152;-75
2021/07/20 07:19:47;;;;;;;23.05;14.15;;;;;;;31.68;39.75;101118.81;4403621;32;20818;-75
2021/07/20 07:22:14;;;;;;;26.85;15.55;;;;;;;31.96;39.26;101113.69;4407911;32;20474;-74
2021/07/20 07:24:43;;;;;;;28.20;14.63;;;;;;;31.94;39.32;101112.72;4411486;32;21022;-73
2021/07/20 07:27:12;;;;;;;28.50;14.27;;;;;;;32.06;39.15;101119.72;4406651;32;20089;-74
2021/07/20 07:29:39;;;;;;;28.73;13.43;;;;;;;32.06;39.15;101125.53;4405315;32;20484;-74
2021/07/20 07:32:05;;;;;;;27.40;14.27;;;;;;;32.25;38.74;101120.91;4408207;32;20435;-75
2021/07/20 07:34:31;;;;;;;31.50;14.25;;;;;;;32.06;38.96;101117.56;4407607;32;20595;-73
2021/07/20 07:36:58;;;;;;;30.90;14.48;;;;;;;32.21;38.77;101123.41;4407081;32;20038;-75
2021/07/20 07:39:25;;;;;;;26.25;13.68;;;;;;;32.25;38.69;101126.72;4409038;32;20545;-74
2021/07/20 07:41:53;;;;;;;30.12;13.88;;;;;;;32.39;38.33;101124.41;4404483;32;20866;-74
2021/07/20 07:44:20;;;;;;;27.65;15.55;;;;;;;32.52;38.29;101132.97;4408654;32;20099;-75
2021/07/20 07:46:46;;;;;;;27.60;13.68;;;;;;;32.50;38.22;101129.84;4406767;32;20406;-74
2021/07/20 07:49:13;;;;;;;31.12;13.82;;;;;;;32.45;38.26;101127.91;4405698;32;20050;-76
2021/07/20 07:51:41;;;;;;;29.05;13.60;;;;;;;32.60;38.24;101140.34;4404472;32;20041;-75
2021/07/20 07:54:08;;;;;;;27.25;13.77;;;;;;;32.60;38.37;101140.34;4404110;32;20166;-74
2021/07/20 07:56:36;;;;;;;31.95;15.02;;;;;;;32.82;37.79;101126.31;4404274;32;20627;-74
2021/07/20 07:59:02;;;;;;;23.17;13.05;;;;;;;32.97;37.37;101130.00;4405516;32;20082;-75
2021/07/20 08:01:30;;;;;;;24.77;13.98;;;;;;;33.12;37.09;101132.09;4405767;32;20076;-74
2021/07/20 08:03:56;;;;;;;29.80;13.05;;;;;;;33.21;37.11;101128.56;4405529;32;20434;-77
2021/07/20 08:06:25;;;;;;;25.02;13.98;;;;;;;33.34;36.86;101132.00;4408064;32;20124;-75
2021/07/20 08:08:55;;;;;;;27.83;13.23;;;;;;;33.61;36.30;101130.19;4419187;32;20451;-74
2021/07/20 08:11:23;;;;;;;29.75;12.85;;;;;;;33.91;35.93;101135.09;4406435;32;20101;-75
2021/07/20 08:13:51;;;;;;;28.58;13.43;;;;;;;34.01;35.77;101127.22;4405601;32;20336;-75
2021/07/20 08:16:20;;;;;;;25.67;12.05;;;;;;;34.11;35.55;101125.19;4407388;32;20120;-75
2021/07/20 08:18:46;;;;;;;30.92;14.15;;;;;;;34.36;35.26;101134.81;4406818;32;20046;-75
2021/07/20 08:21:14;;;;;;;29.42;13.18;;;;;;;34.38;35.04;101129.91;4405035;32;20441;-77
2021/07/20 08:23:40;;;;;;;27.13;13.20;;;;;;;34.48;34.89;101126.31;4406641;32;20570;-75
2021/07/20 08:26:18;;;;;;;28.92;13.18;;;;;;;34.59;34.68;101132.44;4403676;32;20453;-75
2021/07/20 08:28:58;;;;;;;26.77;12.60;;;;;;;34.65;34.49;101135.91;4404003;32;20041;-76
2021/07/20 08:31:26;;;;;;;31.45;12.40;;;;;;;34.85;34.23;101131.81;4405273;32;20100;-75
2021/07/20 08:33:56;;;;;;;26.40;13.18;;;;;;;34.97;34.08;101140.88;4404426;32;20076;-74
2021/07/20 08:36:24;;;;;;;28.42;14.85;;;;;;;35.03;33.78;101139.22;4409353;32;20099;-74
2021/07/20 08:38:54;;;;;;;40.10;14.32;;;;;;;35.22;33.38;101136.47;4407015;32;20450;-76
2021/07/20 08:44:18;;;;;;;32.88;16.05;;;;;;;36.89;30.86;101142.22;3978849;32;15024376;-76
2021/07/20 08:46:53;;;;;;;25.92;14.45;;;;;;;36.89;30.86;101142.22;4434522;32;20441;-75
2021/07/20 08:57:14;;;;;;;32.03;12.18;;;;;;;38.02;29.40;101144.94;3983894;32;15025312;-76
2021/07/20 08:59:49;;;;;;;28.08;13.62;;;;;;;38.02;29.40;101144.94;4439077;32;20099;-76
2021/07/20 09:02:38;;;;;;;29.83;12.75;;;;;;;37.76;29.29;101149.69;4440552;32;20065;-77
2021/07/20 09:07:46;;;;;;;32.75;12.55;;;;;;;37.80;29.45;101141.16;3971416;32;15031070;-74
2021/07/20 09:10:13;;;;;;;32.08;10.90;;;;;;;37.80;29.45;101141.16;4427105;32;20336;-75
2021/07/20 09:12:46;;;;;;;17.55;11.05;;;;;;;37.18;29.91;101137.12;4425033;32;20060;-75
2021/07/20 09:15:19;;;;;;;33.50;12.27;;;;;;;37.61;29.36;101144.09;4423701;32;20081;-75
2021/07/20 09:18:25;;;;;;;27.48;12.48;;;;;;;37.75;29.14;101130.50;4426055;32;20042;-74
2021/07/20 09:20:56;;;;;;;26.10;11.82;;;;;;;38.32;28.48;101141.31;4423756;32;20105;-76
2021/07/20 09:23:33;;;;;;;23.05;11.35;;;;;;;38.36;28.41;101133.56;4423379;32;20144;-75
2021/07/20 09:29:03;;;;;;;32.58;12.37;;;;;;;39.67;26.81;101126.56;3986314;32;15022728;-75
2021/07/20 09:34:31;;;;;;;26.87;11.00;;;;;;;40.12;26.49;101126.59;3982601;32;15023417;-76
2021/07/20 09:37:06;;;;;;;27.35;11.68;;;;;;;40.12;26.49;101126.59;4435329;32;20373;-74
2021/07/20 09:39:56;;;;;;;22.35;10.48;;;;;;;39.52;26.83;101115.28;4432737;32;20104;-75
2021/07/20 09:42:45;;;;;;;26.62;10.40;;;;;;;39.44;27.06;101120.63;4431556;32;20104;-75
2021/07/20 09:45:19;;;;;;;22.35;10.32;;;;;;;40.03;25.99;101122.31;4431936;32;20407;-75
2021/07/20 09:47:52;;;;;;;;;;;;;;;39.95;26.08;101121.03;4432477;32;20450;-75
2021/07/20 09:50:18;;;;;;;21.33;10.63;;;;;;;40.03;26.06;101118.63;4429384;32;19937;-75
2021/07/20 09:53:14;;;;;;;22.65;10.27;;;;;;;40.17;25.95;101122.47;4432553;32;20075;-74
2021/07/20 09:58:51;;;;;;;25.17;9.90;;;;;;;40.83;24.37;101121.56;3963815;32;15024176;-75
2021/07/20 10:01:31;;;;;;;18.12;8.93;;;;;;;40.97;24.72;101124.63;4414926;32;20374;-75
2021/07/20 10:09:21;;;;;;;15.07;7.15;;;;;;;42.39;22.85;101124.19;3986986;32;15022175;-75
2021/07/20 10:14:39;;;;;;;16.15;6.87;;;;;;;43.31;21.65;101130.59;3984314;32;15023075;-76
2021/07/20 10:20:00;;;;;;;16.60;7.20;;;;;;;43.59;21.25;101120.97;4004123;31;15018983;-75
2021/07/20 10:22:36;;;;;;;17.35;7.68;;;;;;;43.59;21.25;101120.97;4455343;32;20497;-75
2021/07/20 10:25:06;;;;;;;17.15;7.55;;;;;;;43.28;21.09;101126.00;4458660;32;20041;-75
2021/07/20 10:30:18;;;;;;;15.60;8.15;;;;;;;44.11;20.84;101125.78;3984614;32;15022677;-74
2021/07/20 10:35:27;;;;;;;22.58;8.40;;;;;;;44.92;19.84;101118.41;3978893;31;15707464;-76
2021/07/20 10:37:57;;;;;;;14.50;6.77;;;;;;;44.92;19.84;101118.41;4466157;32;20469;-76
2021/07/20 10:40:25;;;;;;;13.95;6.70;;;;;;;45.04;19.11;101119.75;4464248;32;20087;-76
2021/07/20 10:42:58;;;;;;;12.82;6.97;;;;;;;45.22;19.11;101108.66;4467133;32;20064;-76
2021/07/20 10:45:26;;;;;;;12.90;7.20;;;;;;;45.36;18.76;101106.28;4463888;32;20084;-75
2021/07/20 10:48:01;;;;;;;12.20;6.47;;;;;;;45.80;18.58;101113.38;4463288;32;20076;-75
2021/07/20 10:51:06;;;;;;;14.18;7.43;;;;;;;45.90;18.57;101104.84;4467547;32;20052;-75
2021/07/20 10:53:43;;;;;;;16.15;6.97;;;;;;;46.25;17.97;101105.53;4449554;32;20037;-75
2021/07/20 10:56:48;;;;;;;18.15;6.95;;;;;;;46.41;17.87;101114.34;4465381;32;20089;-77
2021/07/20 10:59:43;;;;;;;15.25;6.78;;;;;;;46.44;17.63;101109.97;4467104;32;20568;-76
2021/07/20 11:02:30;;;;;;;16.73;7.15;;;;;;;45.97;17.88;101115.53;4466476;32;20095;-75
2021/07/20 11:05:01;;;;;;;15.43;6.62;;;;;;;45.81;18.15;101120.84;4463297;32;20400;-76
2021/07/20 11:12:45;;;;;;;11.90;7.18;;;;;;;44.03;20.17;101107.56;3982967;32;15039363;-75
2021/07/20 11:15:13;;;;;;;12.07;6.37;;;;;;;44.03;20.17;101107.56;4435552;32;20064;-77
2021/07/20 11:17:42;;;;;;;11.82;6.55;;;;;;;43.84;20.36;101099.22;4433924;32;20037;-77
2021/07/20 11:20:13;;;;;;;16.40;7.18;;;;;;;44.05;20.04;101095.81;4435257;32;20107;-74
2021/07/20 11:22:41;;;;;;;18.23;6.75;;;;;;;44.51;19.63;101104.69;4432577;32;20381;-76
2021/07/20 11:25:09;;;;;;;17.27;7.50;;;;;;;45.23;18.76;101106.44;4436668;32;20462;-75
2021/07/20 11:27:39;;;;;;;12.43;6.00;;;;;;;44.99;18.82;101103.19;4430917;32;20068;-76
2021/07/20 11:30:10;;;;;;;12.02;6.68;;;;;;;45.01;18.80;101090.63;4437208;32;20071;-74
2021/07/20 11:32:37;;;;;;;15.70;7.55;;;;;;;45.12;18.93;101084.44;4436456;32;20119;-75
2021/07/20 11:35:09;;;;;;;14.87;7.25;;;;;;;44.60;19.17;101088.03;4437463;32;20324;-75
2021/07/20 11:37:40;;;;;;;15.32;6.72;;;;;;;44.57;19.31;101095.31;4433285;32;20038;-75
2021/07/20 11:40:13;;;;;;;11.10;6.72;;;;;;;44.57;19.15;101098.28;4433956;32;20516;-77
2021/07/20 11:42:59;;;;;;;13.93;7.00;;;;;;;44.57;19.12;101102.00;4435622;32;20440;-78
2021/07/20 11:45:33;;;;;;;14.48;6.45;;;;;;;44.64;19.16;101088.25;4437445;32;20030;-76
2021/07/20 11:48:06;;;;;;;15.87;7.20;;;;;;;44.78;18.93;101089.62;4433575;32;20168;-76
2021/07/20 11:55:53;;;;;;;13.43;7.63;;;;;;;42.69;22.50;101099.22;3999680;31;15018765;-83
2021/07/20 12:01:37;;;;;;;23.25;8.95;;;;;;;40.61;31.51;101090.66;3982290;32;15027123;-80
2021/07/20 12:12:20;;;;;;;22.92;9.32;;;;;;;38.03;33.06;101094.37;3985779;32;15025230;-78
2021/07/20 12:14:47;;;;;;;20.92;9.40;;;;;;;38.03;33.06;101094.37;4433592;32;20497;-78
2021/07/20 12:17:14;;;;;;;14.82;9.40;;;;;;;37.54;32.81;101095.09;4434239;32;20661;-81
2021/07/20 12:19:41;;;;;;;21.73;9.70;;;;;;;37.41;33.62;101092.66;4440836;32;20107;-78
2021/07/20 12:22:10;;;;;;;23.98;10.07;;;;;;;37.34;33.80;101097.31;4442975;32;20441;-79
2021/07/20 12:24:37;;;;;;;17.98;9.98;;;;;;;37.32;33.73;101081.69;4439212;32;20069;-78
2021/07/20 12:27:05;;;;;;;21.95;10.65;;;;;;;37.26;33.61;101087.87;4440747;32;20108;-78
2021/07/20 12:29:52;;;;;;;20.75;9.85;;;;;;;37.64;33.56;101084.13;4437546;32;20042;-76